sensor_id;sensor_type;location;lat;lon;timestamp;temperature;humidity
3055;DHT22;1537;52.018;8.542;2023-07-16T00:01:10;21.00;99.90
3055;DHT22;1537;52.018;8.542;2023-07-16T00:04:34;21.00;99.90
3055;DHT22;1537;52.018;8.542;2023-07-16T00:07:58;20.90;99.90
3055;DHT22;1537;52.018;8.542;2023-07-16T00:11:23;20.80;99.90
3055;DHT22;1537;52.018;8.542;2023-07-16T00:14:47;20.70;99.90
3055;DHT22;1537;52.018;8.542;2023-07-16T00:18:11;20.60;99.90
3055;DHT22;1537;52.018;8.542;2023-07-16T00:21:35;20.60;99.90
3055;DHT22;1537;52.018;8.542;2023-07-16T00:24:59;20.60;99.90
3055;DHT22;1537;52.018;8.542;2023-07-16T00:28:25;20.60;99.90
3055;DHT22;1537;52.018;8.542;2023-07-16T00:31:48;20.70;99.90
3055;DHT22;1537;52.018;8.542;2023-07-16T00:35:12;20.50;99.90
3055;DHT22;1537;52.018;8.542;2023-07-16T00:38:36;20.50;99.90
3055;DHT22;1537;52.018;8.542;2023-07-16T00:42:01;20.60;99.90
3055;DHT22;1537;52.018;8.542;2023-07-16T00:45:26;20.60;99.90
3055;DHT22;1537;52.018;8.542;2023-07-16T00:48:50;20.60;99.90
3055;DHT22;1537;52.018;8.542;2023-07-16T00:52:18;20.60;99.90
3055;DHT22;1537;52.018;8.542;2023-07-16T00:55:42;20.60;99.90
3055;DHT22;1537;52.018;8.542;2023-07-16T00:59:06;20.50;99.90
3055;DHT22;1537;52.018;8.542;2023-07-16T01:02:31;20.40;99.90
3055;DHT22;1537;52.018;8.542;2023-07-16T01:05:59;20.40;99.90
3055;DHT22;1537;52.018;8.542;2023-07-16T01:09:24;20.40;99.90
3055;DHT22;1537;52.018;8.542;2023-07-16T01:12:49;20.30;99.90
3055;DHT22;1537;52.018;8.542;2023-07-16T01:16:20;20.30;99.90
3055;DHT22;1537;52.018;8.542;2023-07-16T01:19:47;20.30;99.90
3055;DHT22;1537;52.018;8.542;2023-07-16T01:23:29;20.20;99.90
3055;DHT22;1537;52.018;8.542;2023-07-16T01:27:23;20.20;99.90
3055;DHT22;1537;52.018;8.542;2023-07-16T01:30:52;20.20;99.90
3055;DHT22;1537;52.018;8.542;2023-07-16T01:34:17;20.30;99.90
3055;DHT22;1537;52.018;8.542;2023-07-16T01:37:42;20.20;99.90
3055;DHT22;1537;52.018;8.542;2023-07-16T01:41:06;20.20;99.90
3055;DHT22;1537;52.018;8.542;2023-07-16T01:44:29;20.20;99.90
3055;DHT22;1537;52.018;8.542;2023-07-16T01:48:05;20.20;99.90
3055;DHT22;1537;52.018;8.542;2023-07-16T01:51:36;20.20;99.90
3055;DHT22;1537;52.018;8.542;2023-07-16T01:55:00;20.20;99.90
3055;DHT22;1537;52.018;8.542;2023-07-16T01:58:25;20.30;99.90
3055;DHT22;1537;52.018;8.542;2023-07-16T02:01:49;20.10;99.90
3055;DHT22;1537;52.018;8.542;2023-07-16T02:05:15;20.00;99.90
3055;DHT22;1537;52.018;8.542;2023-07-16T02:08:39;20.00;99.90
3055;DHT22;1537;52.018;8.542;2023-07-16T02:12:03;20.00;99.90
3055;DHT22;1537;52.018;8.542;2023-07-16T02:15:27;19.90;99.90
3055;DHT22;1537;52.018;8.542;2023-07-16T02:18:51;19.80;99.90
3055;DHT22;1537;52.018;8.542;2023-07-16T02:22:15;19.80;99.90
3055;DHT22;1537;52.018;8.542;2023-07-16T02:25:39;19.70;99.90
3055;DHT22;1537;52.018;8.542;2023-07-16T02:29:03;19.70;99.90
3055;DHT22;1537;52.018;8.542;2023-07-16T02:32:30;19.70;99.90
3055;DHT22;1537;52.018;8.542;2023-07-16T02:35:56;19.80;99.90
3055;DHT22;1537;52.018;8.542;2023-07-16T02:39:21;19.80;99.90
3055;DHT22;1537;52.018;8.542;2023-07-16T02:42:44;19.80;99.90
3055;DHT22;1537;52.018;8.542;2023-07-16T02:46:08;19.70;99.90
3055;DHT22;1537;52.018;8.542;2023-07-16T02:49:31;19.60;99.90
3055;DHT22;1537;52.018;8.542;2023-07-16T02:52:55;19.60;99.90
3055;DHT22;1537;52.018;8.542;2023-07-16T02:56:20;19.50;99.90
3055;DHT22;1537;52.018;8.542;2023-07-16T02:59:44;19.50;99.90
3055;DHT22;1537;52.018;8.542;2023-07-16T03:03:08;19.40;99.90
3055;DHT22;1537;52.018;8.542;2023-07-16T03:06:32;19.40;99.90
3055;DHT22;1537;52.018;8.542;2023-07-16T03:09:56;19.30;99.90
3055;DHT22;1537;52.018;8.542;2023-07-16T03:13:21;19.20;99.90
3055;DHT22;1537;52.018;8.542;2023-07-16T03:16:44;19.10;99.90
3055;DHT22;1537;52.018;8.542;2023-07-16T03:20:10;19.10;99.90
3055;DHT22;1537;52.018;8.542;2023-07-16T03:23:36;19.10;99.90
3055;DHT22;1537;52.018;8.542;2023-07-16T03:26:59;19.10;99.90
3055;DHT22;1537;52.018;8.542;2023-07-16T03:30:45;19.00;99.90
3055;DHT22;1537;52.018;8.542;2023-07-16T03:34:08;18.90;99.90
3055;DHT22;1537;52.018;8.542;2023-07-16T03:37:32;18.90;99.90
3055;DHT22;1537;52.018;8.542;2023-07-16T03:40:56;18.70;99.90
3055;DHT22;1537;52.018;8.542;2023-07-16T03:44:20;18.80;99.90
3055;DHT22;1537;52.018;8.542;2023-07-16T03:47:46;18.70;99.90
3055;DHT22;1537;52.018;8.542;2023-07-16T03:51:10;18.70;99.90
3055;DHT22;1537;52.018;8.542;2023-07-16T03:54:33;18.80;99.90
3055;DHT22;1537;52.018;8.542;2023-07-16T03:57:57;18.80;99.90
3055;DHT22;1537;52.018;8.542;2023-07-16T04:01:21;18.80;99.90
3055;DHT22;1537;52.018;8.542;2023-07-16T04:04:46;18.70;99.90
3055;DHT22;1537;52.018;8.542;2023-07-16T04:08:10;18.70;99.90
3055;DHT22;1537;52.018;8.542;2023-07-16T04:11:34;18.70;99.90
3055;DHT22;1537;52.018;8.542;2023-07-16T04:14:58;18.60;99.90
3055;DHT22;1537;52.018;8.542;2023-07-16T04:18:22;18.60;99.90
3055;DHT22;1537;52.018;8.542;2023-07-16T04:21:47;18.60;99.90
3055;DHT22;1537;52.018;8.542;2023-07-16T04:25:11;18.60;99.90
3055;DHT22;1537;52.018;8.542;2023-07-16T04:28:35;18.60;99.90
3055;DHT22;1537;52.018;8.542;2023-07-16T04:31:59;18.70;99.90
3055;DHT22;1537;52.018;8.542;2023-07-16T04:35:23;18.80;99.90
3055;DHT22;1537;52.018;8.542;2023-07-16T04:38:48;18.90;99.90
3055;DHT22;1537;52.018;8.542;2023-07-16T04:42:15;18.80;99.90
3055;DHT22;1537;52.018;8.542;2023-07-16T04:45:39;18.90;99.90
3055;DHT22;1537;52.018;8.542;2023-07-16T04:49:05;18.90;99.90
3055;DHT22;1537;52.018;8.542;2023-07-16T04:52:29;19.00;99.90
3055;DHT22;1537;52.018;8.542;2023-07-16T04:55:54;19.00;99.90
3055;DHT22;1537;52.018;8.542;2023-07-16T04:59:19;19.00;99.90
3055;DHT22;1537;52.018;8.542;2023-07-16T05:02:43;19.10;99.90
3055;DHT22;1537;52.018;8.542;2023-07-16T05:06:08;19.20;99.90
3055;DHT22;1537;52.018;8.542;2023-07-16T05:09:31;19.40;99.90
3055;DHT22;1537;52.018;8.542;2023-07-16T05:12:56;19.50;99.90
3055;DHT22;1537;52.018;8.542;2023-07-16T05:16:20;19.80;99.90
3055;DHT22;1537;52.018;8.542;2023-07-16T05:19:44;20.10;99.90
3055;DHT22;1537;52.018;8.542;2023-07-16T05:23:09;20.60;99.90
3055;DHT22;1537;52.018;8.542;2023-07-16T05:26:33;21.30;99.90
3055;DHT22;1537;52.018;8.542;2023-07-16T05:29:58;21.80;99.90
3055;DHT22;1537;52.018;8.542;2023-07-16T05:33:21;22.30;99.90
3055;DHT22;1537;52.018;8.542;2023-07-16T05:36:45;22.60;99.90
3055;DHT22;1537;52.018;8.542;2023-07-16T05:40:09;22.70;99.90
3055;DHT22;1537;52.018;8.542;2023-07-16T05:43:33;22.70;99.90
3055;DHT22;1537;52.018;8.542;2023-07-16T05:46:58;22.70;99.90
3055;DHT22;1537;52.018;8.542;2023-07-16T05:50:21;23.00;99.90
3055;DHT22;1537;52.018;8.542;2023-07-16T05:53:45;23.30;99.90
3055;DHT22;1537;52.018;8.542;2023-07-16T05:57:08;23.20;99.90
3055;DHT22;1537;52.018;8.542;2023-07-16T06:00:32;23.40;99.90
3055;DHT22;1537;52.018;8.542;2023-07-16T06:03:57;23.10;99.90
3055;DHT22;1537;52.018;8.542;2023-07-16T06:07:21;23.40;99.90
3055;DHT22;1537;52.018;8.542;2023-07-16T06:10:45;23.60;99.90
3055;DHT22;1537;52.018;8.542;2023-07-16T06:14:09;23.50;99.90
3055;DHT22;1537;52.018;8.542;2023-07-16T06:17:33;23.80;99.90
3055;DHT22;1537;52.018;8.542;2023-07-16T06:20:58;23.80;99.90
3055;DHT22;1537;52.018;8.542;2023-07-16T06:24:21;24.00;99.90
3055;DHT22;1537;52.018;8.542;2023-07-16T06:27:45;24.20;99.60
3055;DHT22;1537;52.018;8.542;2023-07-16T06:31:09;24.10;99.10
3055;DHT22;1537;52.018;8.542;2023-07-16T06:34:32;24.40;98.40
3055;DHT22;1537;52.018;8.542;2023-07-16T06:37:57;24.60;97.50
3055;DHT22;1537;52.018;8.542;2023-07-16T06:41:21;24.30;97.20
3055;DHT22;1537;52.018;8.542;2023-07-16T06:44:44;24.80;96.30
3055;DHT22;1537;52.018;8.542;2023-07-16T06:48:08;24.90;95.50
3055;DHT22;1537;52.018;8.542;2023-07-16T06:51:32;24.70;95.00
3055;DHT22;1537;52.018;8.542;2023-07-16T06:54:57;24.20;95.10
3055;DHT22;1537;52.018;8.542;2023-07-16T06:58:30;24.10;95.00
3055;DHT22;1537;52.018;8.542;2023-07-16T07:01:54;24.20;95.20
3055;DHT22;1537;52.018;8.542;2023-07-16T07:05:18;24.50;94.60
3055;DHT22;1537;52.018;8.542;2023-07-16T07:08:42;25.00;94.30
3055;DHT22;1537;52.018;8.542;2023-07-16T07:12:07;25.00;93.00
3055;DHT22;1537;52.018;8.542;2023-07-16T07:15:31;23.80;92.80
3055;DHT22;1537;52.018;8.542;2023-07-16T07:18:56;22.90;93.80
3055;DHT22;1537;52.018;8.542;2023-07-16T07:22:19;22.90;94.00
3055;DHT22;1537;52.018;8.542;2023-07-16T07:25:48;23.40;93.90
3055;DHT22;1537;52.018;8.542;2023-07-16T07:29:13;23.70;93.50
3055;DHT22;1537;52.018;8.542;2023-07-16T07:32:37;23.80;93.30
3055;DHT22;1537;52.018;8.542;2023-07-16T07:36:02;24.10;92.70
3055;DHT22;1537;52.018;8.542;2023-07-16T07:39:25;23.60;93.30
3055;DHT22;1537;52.018;8.542;2023-07-16T07:42:49;22.80;94.10
3055;DHT22;1537;52.018;8.542;2023-07-16T07:46:14;22.90;94.40
3055;DHT22;1537;52.018;8.542;2023-07-16T07:49:38;24.40;93.40
3055;DHT22;1537;52.018;8.542;2023-07-16T07:53:02;26.10;91.40
3055;DHT22;1537;52.018;8.542;2023-07-16T07:56:26;27.40;89.70
3055;DHT22;1537;52.018;8.542;2023-07-16T07:59:49;28.10;86.00
3055;DHT22;1537;52.018;8.542;2023-07-16T08:03:15;28.40;82.30
3055;DHT22;1537;52.018;8.542;2023-07-16T08:06:39;28.30;79.90
3055;DHT22;1537;52.018;8.542;2023-07-16T08:10:03;28.40;79.00
3055;DHT22;1537;52.018;8.542;2023-07-16T08:13:27;28.10;78.30
3055;DHT22;1537;52.018;8.542;2023-07-16T08:16:51;27.70;78.20
3055;DHT22;1537;52.018;8.542;2023-07-16T08:20:16;27.00;78.90
3055;DHT22;1537;52.018;8.542;2023-07-16T08:23:39;27.50;76.90
3055;DHT22;1537;52.018;8.542;2023-07-16T08:27:03;27.20;77.20
3055;DHT22;1537;52.018;8.542;2023-07-16T08:30:27;27.70;75.20
3055;DHT22;1537;52.018;8.542;2023-07-16T08:33:51;28.10;73.20
3055;DHT22;1537;52.018;8.542;2023-07-16T08:37:16;27.60;74.30
3055;DHT22;1537;52.018;8.542;2023-07-16T08:40:40;27.20;75.00
3055;DHT22;1537;52.018;8.542;2023-07-16T08:44:03;26.20;77.10
3055;DHT22;1537;52.018;8.542;2023-07-16T08:47:27;25.40;78.90
3055;DHT22;1537;52.018;8.542;2023-07-16T08:50:51;24.80;79.70
3055;DHT22;1537;52.018;8.542;2023-07-16T08:54:16;24.40;79.80
3055;DHT22;1537;52.018;8.542;2023-07-16T08:57:41;24.00;80.40
3055;DHT22;1537;52.018;8.542;2023-07-16T09:01:06;24.20;79.50
3055;DHT22;1537;52.018;8.542;2023-07-16T09:04:29;25.10;78.40
3055;DHT22;1537;52.018;8.542;2023-07-16T09:07:53;25.50;78.40
3055;DHT22;1537;52.018;8.542;2023-07-16T09:11:18;26.70;74.90
3055;DHT22;1537;52.018;8.542;2023-07-16T09:14:44;27.80;71.60
3055;DHT22;1537;52.018;8.542;2023-07-16T09:18:09;28.30;71.70
3055;DHT22;1537;52.018;8.542;2023-07-16T09:21:33;28.70;70.10
3055;DHT22;1537;52.018;8.542;2023-07-16T09:25:00;28.70;68.60
3055;DHT22;1537;52.018;8.542;2023-07-16T09:28:25;27.60;70.30
3055;DHT22;1537;52.018;8.542;2023-07-16T09:31:56;27.10;70.60
3055;DHT22;1537;52.018;8.542;2023-07-16T09:35:19;27.50;70.90
3055;DHT22;1537;52.018;8.542;2023-07-16T09:38:44;28.70;68.40
3055;DHT22;1537;52.018;8.542;2023-07-16T09:42:08;28.00;68.40
3055;DHT22;1537;52.018;8.542;2023-07-16T09:45:33;27.90;69.10
3055;DHT22;1537;52.018;8.542;2023-07-16T09:48:57;28.50;68.20
3055;DHT22;1537;52.018;8.542;2023-07-16T09:52:20;29.40;65.90
3055;DHT22;1537;52.018;8.542;2023-07-16T09:55:44;30.60;63.20
3055;DHT22;1537;52.018;8.542;2023-07-16T09:59:13;30.70;62.20
3055;DHT22;1537;52.018;8.542;2023-07-16T10:02:38;29.00;62.50
3055;DHT22;1537;52.018;8.542;2023-07-16T10:06:07;29.10;63.40
3055;DHT22;1537;52.018;8.542;2023-07-16T10:09:38;29.20;61.70
3055;DHT22;1537;52.018;8.542;2023-07-16T10:13:02;29.40;62.10
3055;DHT22;1537;52.018;8.542;2023-07-16T10:16:26;29.50;62.70
3055;DHT22;1537;52.018;8.542;2023-07-16T10:19:57;29.70;60.70
3055;DHT22;1537;52.018;8.542;2023-07-16T10:23:21;28.60;62.80
3055;DHT22;1537;52.018;8.542;2023-07-16T10:26:44;28.00;62.80
3055;DHT22;1537;52.018;8.542;2023-07-16T10:30:08;27.80;62.80
3055;DHT22;1537;52.018;8.542;2023-07-16T10:33:32;27.70;62.70
3055;DHT22;1537;52.018;8.542;2023-07-16T10:36:57;27.60;63.40
3055;DHT22;1537;52.018;8.542;2023-07-16T10:40:21;27.30;63.90
3055;DHT22;1537;52.018;8.542;2023-07-16T10:43:45;27.60;63.30
3055;DHT22;1537;52.018;8.542;2023-07-16T10:47:09;26.70;65.90
3055;DHT22;1537;52.018;8.542;2023-07-16T10:50:34;28.00;64.80
3055;DHT22;1537;52.018;8.542;2023-07-16T10:53:59;28.60;62.90
3055;DHT22;1537;52.018;8.542;2023-07-16T10:57:23;28.10;61.80
3055;DHT22;1537;52.018;8.542;2023-07-16T11:00:47;27.60;63.70
3055;DHT22;1537;52.018;8.542;2023-07-16T11:04:10;26.60;64.90
3055;DHT22;1537;52.018;8.542;2023-07-16T11:07:34;26.10;65.10
3055;DHT22;1537;52.018;8.542;2023-07-16T11:10:59;26.40;65.80
3055;DHT22;1537;52.018;8.542;2023-07-16T11:14:22;26.30;65.70
3055;DHT22;1537;52.018;8.542;2023-07-16T11:17:48;26.20;65.90
3055;DHT22;1537;52.018;8.542;2023-07-16T11:21:12;25.70;66.40
3055;DHT22;1537;52.018;8.542;2023-07-16T11:24:38;25.70;66.40
3055;DHT22;1537;52.018;8.542;2023-07-16T11:28:04;25.80;66.80
3055;DHT22;1537;52.018;8.542;2023-07-16T11:31:28;25.30;67.60
3055;DHT22;1537;52.018;8.542;2023-07-16T11:34:52;25.40;68.80
3055;DHT22;1537;52.018;8.542;2023-07-16T11:38:17;25.30;67.30
3055;DHT22;1537;52.018;8.542;2023-07-16T11:41:41;25.30;68.30
3055;DHT22;1537;52.018;8.542;2023-07-16T11:45:16;25.60;68.20
3055;DHT22;1537;52.018;8.542;2023-07-16T11:48:40;25.50;67.00
3055;DHT22;1537;52.018;8.542;2023-07-16T11:52:04;25.30;67.70
3055;DHT22;1537;52.018;8.542;2023-07-16T11:55:28;25.40;69.00
3055;DHT22;1537;52.018;8.542;2023-07-16T11:58:53;25.40;67.10
3055;DHT22;1537;52.018;8.542;2023-07-16T12:02:19;25.40;67.70
3055;DHT22;1537;52.018;8.542;2023-07-16T12:05:43;25.50;68.80
3055;DHT22;1537;52.018;8.542;2023-07-16T12:09:15;25.40;68.50
3055;DHT22;1537;52.018;8.542;2023-07-16T12:12:39;25.30;68.00
3055;DHT22;1537;52.018;8.542;2023-07-16T12:16:03;25.40;68.90
3055;DHT22;1537;52.018;8.542;2023-07-16T12:19:28;25.70;68.80
3055;DHT22;1537;52.018;8.542;2023-07-16T12:22:52;25.20;68.60
3055;DHT22;1537;52.018;8.542;2023-07-16T12:26:16;25.10;69.50
3055;DHT22;1537;52.018;8.542;2023-07-16T12:29:40;25.20;69.20
3055;DHT22;1537;52.018;8.542;2023-07-16T12:33:03;25.40;68.00
3055;DHT22;1537;52.018;8.542;2023-07-16T12:36:29;25.60;67.70
3055;DHT22;1537;52.018;8.542;2023-07-16T12:39:54;25.90;67.90
3055;DHT22;1537;52.018;8.542;2023-07-16T12:43:18;25.90;68.40
3055;DHT22;1537;52.018;8.542;2023-07-16T12:46:42;25.90;66.60
3055;DHT22;1537;52.018;8.542;2023-07-16T12:50:06;25.70;67.70
3055;DHT22;1537;52.018;8.542;2023-07-16T12:53:33;25.60;68.10
3055;DHT22;1537;52.018;8.542;2023-07-16T12:56:56;25.60;68.10
3055;DHT22;1537;52.018;8.542;2023-07-16T13:00:20;25.50;67.80
3055;DHT22;1537;52.018;8.542;2023-07-16T13:03:44;25.60;67.40
3055;DHT22;1537;52.018;8.542;2023-07-16T13:07:08;25.60;67.20
3055;DHT22;1537;52.018;8.542;2023-07-16T13:10:33;25.70;66.90
3055;DHT22;1537;52.018;8.542;2023-07-16T13:13:57;25.70;67.20
3055;DHT22;1537;52.018;8.542;2023-07-16T13:17:20;25.70;66.10
3055;DHT22;1537;52.018;8.542;2023-07-16T13:20:44;25.60;66.10
3055;DHT22;1537;52.018;8.542;2023-07-16T13:24:08;25.70;66.10
3055;DHT22;1537;52.018;8.542;2023-07-16T13:27:33;25.80;66.30
3055;DHT22;1537;52.018;8.542;2023-07-16T13:30:57;25.90;66.80
3055;DHT22;1537;52.018;8.542;2023-07-16T13:34:21;25.70;67.00
3055;DHT22;1537;52.018;8.542;2023-07-16T13:37:45;25.60;67.70
3055;DHT22;1537;52.018;8.542;2023-07-16T13:41:09;25.60;68.20
3055;DHT22;1537;52.018;8.542;2023-07-16T13:44:34;25.60;68.50
3055;DHT22;1537;52.018;8.542;2023-07-16T13:47:59;25.50;67.50
3055;DHT22;1537;52.018;8.542;2023-07-16T13:51:23;25.20;68.30
3055;DHT22;1537;52.018;8.542;2023-07-16T13:54:46;25.10;69.60
3055;DHT22;1537;52.018;8.542;2023-07-16T13:58:10;25.20;69.30
3055;DHT22;1537;52.018;8.542;2023-07-16T14:01:38;25.60;69.20
3055;DHT22;1537;52.018;8.542;2023-07-16T14:05:07;25.60;68.50
3055;DHT22;1537;52.018;8.542;2023-07-16T14:08:31;25.80;68.20
3055;DHT22;1537;52.018;8.542;2023-07-16T14:11:56;25.60;68.60
3055;DHT22;1537;52.018;8.542;2023-07-16T14:15:20;25.30;69.30
3055;DHT22;1537;52.018;8.542;2023-07-16T14:18:48;25.40;69.90
3055;DHT22;1537;52.018;8.542;2023-07-16T14:22:11;25.20;70.00
3055;DHT22;1537;52.018;8.542;2023-07-16T14:25:36;25.10;70.20
3055;DHT22;1537;52.018;8.542;2023-07-16T14:29:00;25.30;70.00
3055;DHT22;1537;52.018;8.542;2023-07-16T14:32:24;25.30;69.30
3055;DHT22;1537;52.018;8.542;2023-07-16T14:35:50;25.10;69.90
3055;DHT22;1537;52.018;8.542;2023-07-16T14:39:13;25.00;70.60
3055;DHT22;1537;52.018;8.542;2023-07-16T14:42:37;25.30;70.60
3055;DHT22;1537;52.018;8.542;2023-07-16T14:46:01;25.40;70.10
3055;DHT22;1537;52.018;8.542;2023-07-16T14:49:26;25.40;70.00
3055;DHT22;1537;52.018;8.542;2023-07-16T14:52:51;25.40;69.70
3055;DHT22;1537;52.018;8.542;2023-07-16T14:56:14;25.40;69.80
3055;DHT22;1537;52.018;8.542;2023-07-16T14:59:38;25.50;70.20
3055;DHT22;1537;52.018;8.542;2023-07-16T15:03:03;25.40;69.60
3055;DHT22;1537;52.018;8.542;2023-07-16T15:06:28;25.30;69.80
3055;DHT22;1537;52.018;8.542;2023-07-16T15:09:53;25.20;70.60
3055;DHT22;1537;52.018;8.542;2023-07-16T15:13:17;25.20;69.80
3055;DHT22;1537;52.018;8.542;2023-07-16T15:16:40;25.20;69.70
3055;DHT22;1537;52.018;8.542;2023-07-16T15:20:05;25.10;70.10
3055;DHT22;1537;52.018;8.542;2023-07-16T15:23:29;25.40;70.00
3055;DHT22;1537;52.018;8.542;2023-07-16T15:26:56;25.60;70.20
3055;DHT22;1537;52.018;8.542;2023-07-16T15:30:19;25.70;69.70
3055;DHT22;1537;52.018;8.542;2023-07-16T15:33:43;25.80;69.50
3055;DHT22;1537;52.018;8.542;2023-07-16T15:37:07;25.80;68.40
3055;DHT22;1537;52.018;8.542;2023-07-16T15:40:33;25.60;69.10
3055;DHT22;1537;52.018;8.542;2023-07-16T15:43:58;25.40;70.10
3055;DHT22;1537;52.018;8.542;2023-07-16T15:47:22;25.20;70.40
3055;DHT22;1537;52.018;8.542;2023-07-16T15:50:46;25.10;70.70
3055;DHT22;1537;52.018;8.542;2023-07-16T15:54:10;25.30;71.00
3055;DHT22;1537;52.018;8.542;2023-07-16T15:57:34;25.20;70.20
3055;DHT22;1537;52.018;8.542;2023-07-16T16:01:00;25.10;70.40
3055;DHT22;1537;52.018;8.542;2023-07-16T16:04:24;25.20;71.70
3055;DHT22;1537;52.018;8.542;2023-07-16T16:08:10;25.30;70.50
3055;DHT22;1537;52.018;8.542;2023-07-16T16:11:34;25.20;70.20
3055;DHT22;1537;52.018;8.542;2023-07-16T16:14:58;25.00;70.40
3055;DHT22;1537;52.018;8.542;2023-07-16T16:18:23;25.00;72.10
3055;DHT22;1537;52.018;8.542;2023-07-16T16:21:47;24.90;71.20
3055;DHT22;1537;52.018;8.542;2023-07-16T16:25:11;24.80;72.10
3055;DHT22;1537;52.018;8.542;2023-07-16T16:28:35;24.80;71.40
3055;DHT22;1537;52.018;8.542;2023-07-16T16:31:59;24.90;71.90
3055;DHT22;1537;52.018;8.542;2023-07-16T16:35:25;24.90;71.80
3055;DHT22;1537;52.018;8.542;2023-07-16T16:38:49;24.80;72.10
3055;DHT22;1537;52.018;8.542;2023-07-16T16:42:12;24.70;72.80
3055;DHT22;1537;52.018;8.542;2023-07-16T16:45:36;24.70;73.40
3055;DHT22;1537;52.018;8.542;2023-07-16T16:49:05;24.60;73.20
3055;DHT22;1537;52.018;8.542;2023-07-16T16:52:30;24.70;72.80
3055;DHT22;1537;52.018;8.542;2023-07-16T16:55:54;24.80;72.90
3055;DHT22;1537;52.018;8.542;2023-07-16T16:59:18;24.70;72.90
3055;DHT22;1537;52.018;8.542;2023-07-16T17:02:42;24.90;72.40
3055;DHT22;1537;52.018;8.542;2023-07-16T17:06:06;24.90;72.60
3055;DHT22;1537;52.018;8.542;2023-07-16T17:09:31;24.80;72.20
3055;DHT22;1537;52.018;8.542;2023-07-16T17:12:55;24.90;72.50
3055;DHT22;1537;52.018;8.542;2023-07-16T17:16:20;24.60;71.80
3055;DHT22;1537;52.018;8.542;2023-07-16T17:19:46;24.60;71.70
3055;DHT22;1537;52.018;8.542;2023-07-16T17:23:11;24.60;71.40
3055;DHT22;1537;52.018;8.542;2023-07-16T17:26:36;24.70;71.50
3055;DHT22;1537;52.018;8.542;2023-07-16T17:30:00;24.80;71.10
3055;DHT22;1537;52.018;8.542;2023-07-16T17:33:24;24.80;70.20
3055;DHT22;1537;52.018;8.542;2023-07-16T17:36:48;24.70;70.10
3055;DHT22;1537;52.018;8.542;2023-07-16T17:40:12;24.70;70.00
3055;DHT22;1537;52.018;8.542;2023-07-16T17:43:38;24.50;69.70
3055;DHT22;1537;52.018;8.542;2023-07-16T17:47:02;24.50;69.50
3055;DHT22;1537;52.018;8.542;2023-07-16T17:50:26;24.50;70.00
3055;DHT22;1537;52.018;8.542;2023-07-16T17:53:50;24.30;70.50
3055;DHT22;1537;52.018;8.542;2023-07-16T17:57:13;24.30;70.60
3055;DHT22;1537;52.018;8.542;2023-07-16T18:00:38;24.30;71.00
3055;DHT22;1537;52.018;8.542;2023-07-16T18:04:02;24.30;71.00
3055;DHT22;1537;52.018;8.542;2023-07-16T18:07:27;24.20;70.90
3055;DHT22;1537;52.018;8.542;2023-07-16T18:10:50;24.10;71.30
3055;DHT22;1537;52.018;8.542;2023-07-16T18:14:15;23.90;71.20
3055;DHT22;1537;52.018;8.542;2023-07-16T18:17:41;23.80;71.20
3055;DHT22;1537;52.018;8.542;2023-07-16T18:21:07;23.70;71.40
3055;DHT22;1537;52.018;8.542;2023-07-16T18:24:39;23.60;71.50
3055;DHT22;1537;52.018;8.542;2023-07-16T18:28:03;23.50;72.00
3055;DHT22;1537;52.018;8.542;2023-07-16T18:31:27;23.50;72.50
3055;DHT22;1537;52.018;8.542;2023-07-16T18:34:53;23.50;72.50
3055;DHT22;1537;52.018;8.542;2023-07-16T18:38:17;23.40;72.80
3055;DHT22;1537;52.018;8.542;2023-07-16T18:41:40;23.30;72.70
3055;DHT22;1537;52.018;8.542;2023-07-16T18:45:05;23.30;73.10
3055;DHT22;1537;52.018;8.542;2023-07-16T18:48:30;23.30;73.20
3055;DHT22;1537;52.018;8.542;2023-07-16T18:51:55;23.30;74.30
3055;DHT22;1537;52.018;8.542;2023-07-16T18:55:19;23.20;73.70
3055;DHT22;1537;52.018;8.542;2023-07-16T18:58:44;23.10;73.80
3055;DHT22;1537;52.018;8.542;2023-07-16T19:02:08;23.00;74.30
3055;DHT22;1537;52.018;8.542;2023-07-16T19:05:32;22.90;74.90
3055;DHT22;1537;52.018;8.542;2023-07-16T19:09:07;22.80;75.40
3055;DHT22;1537;52.018;8.542;2023-07-16T19:12:31;22.80;75.50
3055;DHT22;1537;52.018;8.542;2023-07-16T19:15:54;22.80;75.40
3055;DHT22;1537;52.018;8.542;2023-07-16T19:19:18;22.70;75.50
3055;DHT22;1537;52.018;8.542;2023-07-16T19:22:42;22.70;76.40
3055;DHT22;1537;52.018;8.542;2023-07-16T19:26:09;22.70;76.30
3055;DHT22;1537;52.018;8.542;2023-07-16T19:29:32;22.70;76.60
3055;DHT22;1537;52.018;8.542;2023-07-16T19:32:56;22.70;76.90
3055;DHT22;1537;52.018;8.542;2023-07-16T19:36:23;22.60;76.80
3055;DHT22;1537;52.018;8.542;2023-07-16T19:39:47;22.60;77.20
3055;DHT22;1537;52.018;8.542;2023-07-16T19:43:12;22.50;77.30
3055;DHT22;1537;52.018;8.542;2023-07-16T19:46:38;22.40;77.70
3055;DHT22;1537;52.018;8.542;2023-07-16T19:50:03;22.30;78.10
3055;DHT22;1537;52.018;8.542;2023-07-16T19:53:28;22.20;78.50
3055;DHT22;1537;52.018;8.542;2023-07-16T19:56:52;22.20;79.00
3055;DHT22;1537;52.018;8.542;2023-07-16T20:00:17;22.10;79.10
3055;DHT22;1537;52.018;8.542;2023-07-16T20:03:41;22.10;79.50
3055;DHT22;1537;52.018;8.542;2023-07-16T20:07:04;22.10;79.70
3055;DHT22;1537;52.018;8.542;2023-07-16T20:10:33;22.10;80.40
3055;DHT22;1537;52.018;8.542;2023-07-16T20:13:57;22.10;80.70
3055;DHT22;1537;52.018;8.542;2023-07-16T20:17:22;22.20;80.50
3055;DHT22;1537;52.018;8.542;2023-07-16T20:20:46;22.10;81.10
3055;DHT22;1537;52.018;8.542;2023-07-16T20:24:10;22.20;80.90
3055;DHT22;1537;52.018;8.542;2023-07-16T20:27:34;22.20;81.20
3055;DHT22;1537;52.018;8.542;2023-07-16T20:30:57;22.20;81.50
3055;DHT22;1537;52.018;8.542;2023-07-16T20:34:22;22.20;82.10
3055;DHT22;1537;52.018;8.542;2023-07-16T20:37:46;22.10;82.40
3055;DHT22;1537;52.018;8.542;2023-07-16T20:41:10;22.10;82.20
3055;DHT22;1537;52.018;8.542;2023-07-16T20:44:34;22.00;82.50
3055;DHT22;1537;52.018;8.542;2023-07-16T20:48:01;21.80;82.80
3055;DHT22;1537;52.018;8.542;2023-07-16T20:51:26;21.80;83.10
3055;DHT22;1537;52.018;8.542;2023-07-16T20:54:50;21.70;83.60
3055;DHT22;1537;52.018;8.542;2023-07-16T20:58:14;21.60;84.90
3055;DHT22;1537;52.018;8.542;2023-07-16T21:01:37;21.50;85.20
3055;DHT22;1537;52.018;8.542;2023-07-16T21:05:02;21.30;85.10
3055;DHT22;1537;52.018;8.542;2023-07-16T21:08:29;21.30;86.20
3055;DHT22;1537;52.018;8.542;2023-07-16T21:11:53;21.20;86.10
3055;DHT22;1537;52.018;8.542;2023-07-16T21:15:16;21.20;86.00
3055;DHT22;1537;52.018;8.542;2023-07-16T21:18:40;21.20;86.50
3055;DHT22;1537;52.018;8.542;2023-07-16T21:22:06;21.10;86.80
3055;DHT22;1537;52.018;8.542;2023-07-16T21:25:31;21.00;87.30
3055;DHT22;1537;52.018;8.542;2023-07-16T21:28:55;20.90;88.00
3055;DHT22;1537;52.018;8.542;2023-07-16T21:32:19;20.80;88.40
3055;DHT22;1537;52.018;8.542;2023-07-16T21:35:43;20.70;88.80
3055;DHT22;1537;52.018;8.542;2023-07-16T21:39:06;20.70;89.20
3055;DHT22;1537;52.018;8.542;2023-07-16T21:42:35;20.80;89.40
3055;DHT22;1537;52.018;8.542;2023-07-16T21:46:09;20.80;89.80
3055;DHT22;1537;52.018;8.542;2023-07-16T21:49:44;20.80;89.60
3055;DHT22;1537;52.018;8.542;2023-07-16T21:53:14;20.70;90.00
3055;DHT22;1537;52.018;8.542;2023-07-16T21:56:39;20.70;90.20
3055;DHT22;1537;52.018;8.542;2023-07-16T22:00:15;20.90;90.30
3055;DHT22;1537;52.018;8.542;2023-07-16T22:03:45;21.00;90.20
3055;DHT22;1537;52.018;8.542;2023-07-16T22:07:10;21.10;90.40
3055;DHT22;1537;52.018;8.542;2023-07-16T22:10:40;21.10;90.80
3055;DHT22;1537;52.018;8.542;2023-07-16T22:14:04;21.00;90.60
3055;DHT22;1537;52.018;8.542;2023-07-16T22:17:30;20.90;90.70